createdAt,value
2022-11-30T00:01:46.003Z,18.85
2022-11-30T00:04:15.179Z,20.48
2022-11-30T00:06:44.383Z,19.25
2022-11-30T00:09:13.507Z,18.60
2022-11-30T00:11:42.549Z,12.77
2022-11-30T00:14:12.888Z,18.08
2022-11-30T00:16:42.065Z,20.70
2022-11-30T00:19:11.062Z,20.92
2022-11-30T00:21:40.111Z,18.92
2022-11-30T00:24:09.455Z,26.55
2022-11-30T00:26:38.772Z,23.80
2022-11-30T00:29:07.725Z,23.25
2022-11-30T00:31:38.067Z,22.88
2022-11-30T00:34:07.068Z,19.50
2022-11-30T00:36:36.147Z,17.58
2022-11-30T00:39:05.464Z,21.30
2022-11-30T00:41:34.465Z,16.20
2022-11-30T00:44:03.431Z,19.90
2022-11-30T00:46:32.571Z,11.18
2022-11-30T00:49:02.997Z,17.13
2022-11-30T00:51:32.038Z,12.55
2022-11-30T00:54:00.992Z,17.13
2022-11-30T00:56:30.075Z,22.85
2022-11-30T00:58:59.023Z,19.35
2022-11-30T01:01:28.020Z,16.20
2022-11-30T01:03:57.070Z,15.68
2022-11-30T01:06:30.072Z,13.98
2022-11-30T01:08:59.958Z,20.05
2022-11-30T01:11:30.436Z,27.55
2022-11-30T01:14:02.393Z,25.40
2022-11-30T01:16:33.454Z,24.70
2022-11-30T01:19:02.700Z,20.48
2022-11-30T01:21:33.221Z,26.55
2022-11-30T01:24:02.323Z,23.30
2022-11-30T01:26:31.295Z,13.02
2022-11-30T01:29:00.278Z,20.92
2022-11-30T01:31:29.268Z,22.25
2022-11-30T01:33:58.246Z,19.88
2022-11-30T01:36:28.023Z,14.73
2022-11-30T01:38:59.440Z,16.63
2022-11-30T01:41:32.986Z,20.85
2022-11-30T01:44:35.129Z,15.27
2022-11-30T01:47:07.222Z,21.98
2022-11-30T01:49:39.378Z,16.15
2022-11-30T01:52:13.066Z,19.50
2022-11-30T01:54:48.645Z,11.93
2022-11-30T01:57:23.257Z,17.27
2022-11-30T01:59:54.523Z,21.38
2022-11-30T02:02:28.414Z,31.65
2022-11-30T02:04:57.858Z,23.17
2022-11-30T02:07:27.244Z,19.38
2022-11-30T02:09:57.709Z,24.08
2022-11-30T02:12:38.811Z,23.35
2022-11-30T02:15:13.291Z,17.60
2022-11-30T02:17:53.127Z,18.52
2022-11-30T02:20:48.107Z,20.13
2022-11-30T02:23:42.988Z,24.00
2022-11-30T02:29:14.911Z,13.80
2022-11-30T02:31:50.844Z,15.23
2022-11-30T02:34:21.995Z,22.38
2022-11-30T02:36:51.948Z,23.05
2022-11-30T02:39:22.751Z,20.08
2022-11-30T02:41:51.677Z,13.80
2022-11-30T02:44:24.101Z,13.70
2022-11-30T02:47:06.460Z,18.63
2022-11-30T02:49:42.325Z,15.70
2022-11-30T02:52:12.604Z,21.20
2022-11-30T02:54:41.744Z,17.92
2022-11-30T02:57:11.522Z,22.27
2022-11-30T02:59:42.513Z,22.17
2022-11-30T03:02:11.863Z,18.95
2022-11-30T03:04:40.821Z,15.73
2022-11-30T03:07:09.857Z,9.30
2022-11-30T03:09:38.778Z,16.20
2022-11-30T03:12:08.148Z,12.57
2022-11-30T03:14:37.116Z,13.30
2022-11-30T03:17:07.759Z,14.38
2022-11-30T03:19:36.784Z,14.00
2022-11-30T03:22:05.938Z,18.20
2022-11-30T03:24:34.865Z,18.13
2022-11-30T03:27:03.815Z,16.70
2022-11-30T03:29:32.844Z,12.63
2022-11-30T03:32:01.762Z,12.85
2022-11-30T03:34:32.352Z,22.08
2022-11-30T03:37:01.267Z,15.18
2022-11-30T03:39:30.402Z,21.02
2022-11-30T03:41:59.566Z,15.27
2022-11-30T03:44:29.933Z,13.73
2022-11-30T03:46:58.893Z,18.60
2022-11-30T03:49:27.976Z,19.50
2022-11-30T03:51:58.325Z,23.38
2022-11-30T03:54:27.273Z,12.95
2022-11-30T03:56:56.282Z,14.73
2022-11-30T03:59:25.187Z,14.73
2022-11-30T04:01:54.232Z,14.15
2022-11-30T04:04:23.383Z,20.23
2022-11-30T04:06:52.590Z,15.90
2022-11-30T04:09:23.099Z,18.50
2022-11-30T04:11:52.004Z,29.38
2022-11-30T04:14:20.981Z,14.02
2022-11-30T04:16:50.006Z,15.52
2022-11-30T04:19:18.914Z,17.10
2022-11-30T04:21:47.952Z,22.38
2022-11-30T04:24:16.884Z,20.90
2022-11-30T04:26:47.417Z,15.60
2022-11-30T04:29:16.511Z,12.18
2022-11-30T04:31:45.576Z,17.98
2022-11-30T04:34:14.678Z,18.00
2022-11-30T04:36:43.649Z,20.15
2022-11-30T04:39:12.679Z,17.77
2022-11-30T04:41:41.612Z,19.88
2022-11-30T04:44:12.052Z,20.10
2022-11-30T04:46:41.037Z,12.93
2022-11-30T04:49:10.150Z,23.75
2022-11-30T04:51:39.156Z,14.90
2022-11-30T04:54:08.251Z,12.25
2022-11-30T04:56:37.238Z,13.93
2022-11-30T04:59:06.214Z,18.25
2022-11-30T05:01:36.599Z,23.95
2022-11-30T05:04:05.826Z,24.83
2022-11-30T05:06:34.911Z,22.33
2022-11-30T05:09:03.843Z,21.80
2022-11-30T05:11:32.929Z,14.70
2022-11-30T05:14:02.121Z,15.45
2022-11-30T05:16:31.131Z,14.70
2022-11-30T05:19:01.600Z,16.38
2022-11-30T05:21:30.556Z,19.58
2022-11-30T05:23:59.720Z,18.67
2022-11-30T05:26:28.686Z,17.25
2022-11-30T05:28:57.696Z,30.83
2022-11-30T05:31:26.917Z,25.50
2022-11-30T05:33:56.116Z,19.23
2022-11-30T05:36:26.724Z,25.45
2022-11-30T05:38:55.815Z,24.45
2022-11-30T05:41:24.855Z,15.70
2022-11-30T05:43:54.063Z,16.88
2022-11-30T05:46:23.064Z,19.15
2022-11-30T05:48:52.053Z,16.42
2022-11-30T05:51:21.927Z,17.85
2022-11-30T05:53:52.258Z,19.98
2022-11-30T05:56:23.013Z,20.88
2022-11-30T05:58:52.207Z,19.88
2022-11-30T06:01:22.911Z,22.90
2022-11-30T06:03:52.342Z,17.17
2022-11-30T06:06:22.115Z,18.13
2022-11-30T06:08:52.628Z,23.95
2022-11-30T06:11:21.556Z,22.10
2022-11-30T06:13:50.506Z,20.85
2022-11-30T06:16:19.504Z,23.77
2022-11-30T06:18:48.613Z,18.95
2022-11-30T06:21:23.975Z,25.35
2022-11-30T06:23:54.975Z,18.98
2022-11-30T06:26:24.090Z,21.38
2022-11-30T06:28:53.099Z,29.70
2022-11-30T06:31:22.359Z,16.73
2022-11-30T06:33:51.505Z,21.48
2022-11-30T06:36:23.928Z,21.08
2022-11-30T06:38:54.515Z,15.88
2022-11-30T06:41:23.605Z,23.08
2022-11-30T06:43:52.544Z,13.13
2022-11-30T06:46:22.341Z,22.50
2022-11-30T06:48:51.929Z,26.88
2022-11-30T06:51:21.414Z,16.52
2022-11-30T06:53:50.329Z,22.08
2022-11-30T06:56:23.118Z,18.20
2022-11-30T06:58:54.439Z,28.83
2022-11-30T07:01:23.911Z,23.15
2022-11-30T07:03:53.530Z,27.25
2022-11-30T07:06:22.601Z,20.92
2022-11-30T07:08:51.577Z,26.42
2022-11-30T07:11:22.001Z,19.38
2022-11-30T07:13:50.906Z,25.48
2022-11-30T07:16:19.983Z,27.30
2022-11-30T07:18:48.961Z,26.67
2022-11-30T07:21:17.945Z,22.42
2022-11-30T07:24:04.365Z,27.52
2022-11-30T07:26:35.084Z,27.83
2022-11-30T07:29:05.385Z,21.85
2022-11-30T07:31:35.707Z,30.13
2022-11-30T07:34:06.953Z,21.05
2022-11-30T07:36:37.574Z,18.30
2022-11-30T07:39:06.694Z,28.38
2022-11-30T07:41:37.062Z,17.92
2022-11-30T07:44:06.813Z,24.92
2022-11-30T07:46:36.467Z,22.95
2022-11-30T07:49:06.126Z,17.95
2022-11-30T07:51:35.218Z,21.02
2022-11-30T07:54:04.377Z,24.50
2022-11-30T07:56:33.698Z,21.33
2022-11-30T07:59:05.063Z,24.73
2022-11-30T08:01:34.964Z,24.75
2022-11-30T08:04:04.313Z,25.27
2022-11-30T08:06:34.699Z,25.48
2022-11-30T08:09:05.321Z,31.50
2022-11-30T08:11:37.154Z,23.88
2022-11-30T08:14:07.533Z,26.40
2022-11-30T08:16:39.106Z,26.05
2022-11-30T08:19:08.402Z,25.40
2022-11-30T08:21:38.212Z,30.77
2022-11-30T08:24:07.728Z,28.88
2022-11-30T08:28:46.251Z,28.85
2022-11-30T08:31:17.928Z,27.85
2022-11-30T08:33:47.428Z,28.98
2022-11-30T08:36:17.644Z,28.63
2022-11-30T08:38:47.513Z,24.60
2022-11-30T08:41:19.875Z,26.67
2022-11-30T08:43:51.251Z,32.30
2022-11-30T08:49:27.086Z,27.95
2022-11-30T08:54:47.444Z,28.33
2022-11-30T08:57:17.551Z,33.58
2022-11-30T08:59:48.752Z,30.35
2022-11-30T09:02:19.725Z,29.02
2022-11-30T09:04:51.313Z,28.85
2022-11-30T09:07:20.384Z,33.80
2022-11-30T09:09:49.476Z,29.15
2022-11-30T09:12:18.481Z,32.42
2022-11-30T09:14:55.588Z,31.75
2022-11-30T09:17:26.674Z,30.63
2022-11-30T09:19:56.149Z,31.92
2022-11-30T09:22:25.351Z,30.92
2022-11-30T09:24:54.489Z,31.88
2022-11-30T09:27:23.696Z,30.13
2022-11-30T09:29:53.991Z,35.80
2022-11-30T09:32:22.934Z,35.42
2022-11-30T09:34:52.249Z,34.60
2022-11-30T09:37:22.252Z,32.55
2022-11-30T09:39:51.248Z,28.17
2022-11-30T09:42:40.483Z,25.95
2022-11-30T09:45:17.138Z,32.00
2022-11-30T09:48:23.768Z,30.67
2022-11-30T09:50:54.508Z,33.60
2022-11-30T09:57:42.809Z,30.70
2022-11-30T10:00:15.990Z,31.50
2022-11-30T10:02:45.514Z,30.45
2022-11-30T10:05:16.280Z,26.67
2022-11-30T10:07:57.661Z,33.33
2022-11-30T10:10:35.799Z,38.92
2022-11-30T10:13:19.045Z,30.92
2022-11-30T10:16:01.615Z,37.30
2022-11-30T10:18:42.292Z,34.75
2022-11-30T10:21:25.935Z,39.95
2022-11-30T10:24:09.452Z,32.40
2022-11-30T10:26:42.024Z,31.23
2022-11-30T10:29:19.345Z,44.65
2022-11-30T10:31:53.355Z,41.88
2022-11-30T10:34:24.549Z,39.35
2022-11-30T10:37:02.614Z,36.33
2022-11-30T10:39:35.818Z,35.88
2022-11-30T10:42:11.354Z,38.03
2022-11-30T10:44:43.626Z,40.97
2022-11-30T10:47:19.956Z,31.50
2022-11-30T10:49:52.855Z,34.17
2022-11-30T10:52:26.432Z,33.67
2022-11-30T10:55:03.745Z,31.35
2022-11-30T10:57:34.766Z,33.35
2022-11-30T11:00:08.686Z,40.85
2022-11-30T11:02:45.845Z,41.35
2022-11-30T11:05:21.693Z,40.40
2022-11-30T11:08:00.025Z,36.78
2022-11-30T11:10:36.492Z,40.15
2022-11-30T11:13:06.700Z,33.50
2022-11-30T11:15:36.484Z,33.80
2022-11-30T11:18:26.261Z,29.90
2022-11-30T11:21:06.302Z,34.45
2022-11-30T11:23:39.573Z,31.63
2022-11-30T11:26:17.048Z,29.95
2022-11-30T11:28:47.464Z,31.40
2022-11-30T11:31:21.045Z,34.72
2022-11-30T11:33:55.627Z,32.17
2022-11-30T11:36:28.380Z,31.08
2022-11-30T11:38:58.004Z,33.20
2022-11-30T11:41:29.611Z,37.67
2022-11-30T11:44:03.019Z,35.22
2022-11-30T11:46:33.309Z,33.55
2022-11-30T11:49:05.907Z,28.98
2022-11-30T11:51:36.763Z,33.30
2022-11-30T11:54:14.746Z,28.80
2022-11-30T11:56:44.005Z,28.10
2022-11-30T11:59:19.286Z,34.88
2022-11-30T12:01:59.548Z,27.00
2022-11-30T12:04:46.983Z,32.63
2022-11-30T12:07:26.863Z,30.23
2022-11-30T12:10:49.561Z,30.17
2022-11-30T12:13:03.218Z,26.70
2022-11-30T12:15:38.048Z,27.63
2022-11-30T12:18:23.739Z,23.92
2022-11-30T12:21:01.854Z,26.55
2022-11-30T12:24:00.644Z,26.98
2022-11-30T12:26:38.005Z,24.60
2022-11-30T12:29:25.314Z,28.50
2022-11-30T12:32:08.437Z,32.20
2022-11-30T12:35:02.999Z,24.35
2022-11-30T12:37:47.703Z,20.73
2022-11-30T12:40:27.816Z,27.75
2022-11-30T12:43:05.646Z,24.85
2022-11-30T12:45:38.663Z,25.13
2022-11-30T12:48:19.480Z,26.70
2022-11-30T12:51:08.270Z,26.50
2022-11-30T12:53:43.314Z,25.13
2022-11-30T12:58:57.832Z,32.15
2022-11-30T13:01:42.608Z,23.83
2022-11-30T13:04:17.716Z,24.60
2022-11-30T13:09:26.327Z,28.98
2022-11-30T13:12:00.665Z,22.90
2022-11-30T13:14:31.540Z,23.23
2022-11-30T13:17:04.072Z,22.98
2022-11-30T13:19:59.362Z,30.58
2022-11-30T13:22:38.155Z,23.08
2022-11-30T13:25:44.963Z,23.83
2022-11-30T13:28:19.836Z,23.83
2022-11-30T13:30:55.681Z,22.75
2022-11-30T13:33:49.517Z,19.42
2022-11-30T13:36:33.045Z,22.08
2022-11-30T13:39:26.864Z,25.23
2022-11-30T13:42:39.159Z,19.33
2022-11-30T13:45:30.383Z,22.30
2022-11-30T13:48:00.294Z,20.70
2022-11-30T13:50:38.253Z,18.90
2022-11-30T13:53:21.462Z,20.90
2022-11-30T13:56:00.913Z,21.73
2022-11-30T13:58:32.273Z,22.20
2022-11-30T14:01:21.248Z,19.85
2022-11-30T14:04:23.904Z,29.90
2022-11-30T14:06:55.464Z,27.67
2022-11-30T14:09:58.413Z,19.27
2022-11-30T14:13:01.030Z,18.25
2022-11-30T14:15:56.774Z,20.65
2022-11-30T14:21:18.796Z,17.35
2022-11-30T14:23:59.021Z,19.25
2022-11-30T14:26:36.346Z,16.35
2022-11-30T14:29:17.827Z,20.63
2022-11-30T14:31:55.785Z,21.20
2022-11-30T14:34:28.441Z,18.17
2022-11-30T14:37:01.802Z,15.30
2022-11-30T14:39:36.075Z,24.33
2022-11-30T14:42:07.799Z,19.73
2022-11-30T14:44:38.010Z,18.98
2022-11-30T14:47:22.430Z,24.90
2022-11-30T14:49:53.159Z,25.13
2022-11-30T14:52:43.401Z,25.15
2022-11-30T14:55:22.040Z,25.13
2022-11-30T14:58:02.567Z,22.95
2022-11-30T15:00:39.273Z,27.90
2022-11-30T15:03:20.297Z,30.25
2022-11-30T15:05:53.360Z,25.80
2022-11-30T15:08:23.151Z,23.50
2022-11-30T15:10:52.524Z,27.83
2022-11-30T15:13:22.035Z,25.73
2022-11-30T15:15:53.460Z,29.35
2022-11-30T15:18:25.347Z,25.02
2022-11-30T15:21:00.005Z,18.63
2022-11-30T15:23:29.908Z,19.83
2022-11-30T15:26:02.521Z,22.30
2022-11-30T15:28:35.517Z,22.58
2022-11-30T15:31:08.175Z,25.63
2022-11-30T15:33:43.970Z,21.48
2022-11-30T15:36:31.397Z,21.45
2022-11-30T15:39:03.805Z,21.48
2022-11-30T15:41:35.319Z,22.73
2022-11-30T15:44:04.679Z,17.92
2022-11-30T15:46:41.205Z,18.08
2022-11-30T15:49:21.055Z,20.92
2022-11-30T15:52:00.879Z,17.45
2022-11-30T15:54:47.478Z,19.95
2022-11-30T15:57:18.143Z,20.63
2022-11-30T16:00:07.038Z,22.45
2022-11-30T16:02:38.440Z,20.85
2022-11-30T16:05:25.620Z,22.27
2022-11-30T16:07:59.834Z,27.60
2022-11-30T16:10:31.362Z,20.33
2022-11-30T16:13:00.981Z,19.98
2022-11-30T16:15:34.102Z,20.13
2022-11-30T16:18:14.787Z,24.45
2022-11-30T16:20:49.054Z,22.17
2022-11-30T16:23:19.249Z,21.38
2022-11-30T16:25:50.603Z,28.13
2022-11-30T16:28:21.306Z,23.45
2022-11-30T16:30:51.164Z,24.58
2022-11-30T16:33:23.773Z,23.83
2022-11-30T16:35:57.384Z,20.77
2022-11-30T16:38:27.586Z,22.75
2022-11-30T16:40:57.299Z,25.63
2022-11-30T16:43:26.907Z,21.85
2022-11-30T16:45:56.385Z,20.52
2022-11-30T16:48:25.372Z,22.20
2022-11-30T16:51:00.987Z,20.80
2022-11-30T16:53:29.969Z,25.48
2022-11-30T16:55:58.989Z,19.75
2022-11-30T16:58:28.086Z,21.83
2022-11-30T17:01:00.323Z,24.08
2022-11-30T17:03:32.651Z,33.35
2022-11-30T17:06:03.221Z,21.65
2022-11-30T17:08:32.321Z,20.95
2022-11-30T17:11:01.725Z,23.10
2022-11-30T17:13:30.754Z,32.20
2022-11-30T17:15:59.834Z,22.42
2022-11-30T17:18:28.781Z,27.83
2022-11-30T17:21:03.716Z,24.00
2022-11-30T17:26:01.917Z,27.92
2022-11-30T17:28:30.905Z,23.20
2022-11-30T17:31:00.079Z,19.70
2022-11-30T17:33:33.428Z,32.40
2022-11-30T17:36:06.907Z,25.98
2022-11-30T17:38:37.226Z,21.25
2022-11-30T17:41:10.399Z,25.65
2022-11-30T17:43:42.264Z,23.75
2022-11-30T17:46:13.206Z,19.60
2022-11-30T17:48:43.182Z,22.27
2022-11-30T17:51:14.330Z,24.60
2022-11-30T17:53:44.414Z,24.95
2022-11-30T17:56:15.959Z,19.60
2022-11-30T17:58:46.474Z,24.90
2022-11-30T18:01:18.960Z,25.35
2022-11-30T18:03:48.811Z,26.80
2022-11-30T18:06:22.069Z,27.20
2022-11-30T18:08:51.084Z,21.45
2022-11-30T18:11:21.977Z,30.35
2022-11-30T18:13:53.625Z,22.83
2022-11-30T18:16:25.046Z,21.17
2022-11-30T18:18:56.375Z,26.92
2022-11-30T18:21:29.413Z,15.68
2022-11-30T18:23:59.520Z,15.73
2022-11-30T18:26:29.046Z,22.45
2022-11-30T18:29:00.506Z,23.38
2022-11-30T18:31:31.882Z,27.48
2022-11-30T18:34:02.670Z,20.27
2022-11-30T18:36:34.849Z,21.45
2022-11-30T18:39:04.107Z,26.85
2022-11-30T18:41:33.392Z,21.20
2022-11-30T18:44:02.567Z,24.60
2022-11-30T18:46:31.974Z,23.98
2022-11-30T18:49:01.793Z,19.33
2022-11-30T18:51:33.197Z,23.83
2022-11-30T18:54:03.899Z,21.42
2022-11-30T18:56:34.521Z,23.77
2022-11-30T18:59:06.052Z,22.33
2022-11-30T19:01:36.105Z,30.38
2022-11-30T19:04:07.426Z,24.85
2022-11-30T19:06:39.240Z,22.77
2022-11-30T19:09:10.941Z,18.08
2022-11-30T19:11:41.002Z,18.92
2022-11-30T19:14:13.080Z,22.73
2022-11-30T19:16:43.115Z,25.90
2022-11-30T19:19:14.230Z,21.70
2022-11-30T19:21:47.975Z,25.67
2022-11-30T19:24:17.767Z,28.20
2022-11-30T19:26:46.969Z,26.00
2022-11-30T19:29:16.156Z,23.60
2022-11-30T19:31:45.191Z,32.13
2022-11-30T19:34:14.321Z,21.75
2022-11-30T19:36:43.454Z,24.77
2022-11-30T19:39:13.877Z,29.38
2022-11-30T19:41:42.881Z,22.35
2022-11-30T19:44:14.935Z,27.83
2022-11-30T19:46:44.403Z,25.55
2022-11-30T19:49:13.710Z,30.98
2022-11-30T19:51:42.696Z,17.52
2022-11-30T19:54:13.276Z,23.75
2022-11-30T19:56:43.310Z,24.65
2022-11-30T19:59:12.441Z,21.60
2022-11-30T20:01:41.880Z,20.90
2022-11-30T20:04:11.107Z,25.45
2022-11-30T20:06:40.657Z,20.67
2022-11-30T20:09:12.001Z,29.85
2022-11-30T20:11:42.514Z,27.60
2022-11-30T20:14:17.038Z,25.58
2022-11-30T20:16:46.248Z,37.22
2022-11-30T20:19:16.793Z,27.05
2022-11-30T20:21:45.940Z,26.33
2022-11-30T20:24:15.475Z,39.92
2022-11-30T20:26:47.101Z,35.33
2022-11-30T20:29:17.583Z,29.80
2022-11-30T20:31:48.488Z,51.95
2022-11-30T20:34:18.211Z,40.88
2022-11-30T20:36:47.206Z,41.70
2022-11-30T20:39:16.270Z,31.75
2022-11-30T20:41:46.656Z,18.80
2022-11-30T20:44:17.004Z,37.65
2022-11-30T20:46:46.131Z,37.40
2022-11-30T20:49:17.969Z,41.22
2022-11-30T20:51:47.345Z,38.15
2022-11-30T20:54:17.888Z,38.72
2022-11-30T20:56:51.075Z,45.05
2022-11-30T20:59:23.830Z,42.65
2022-11-30T21:01:53.172Z,35.92
2022-11-30T21:04:25.828Z,42.92
2022-11-30T21:06:55.422Z,43.83
2022-11-30T21:09:24.452Z,38.08
2022-11-30T21:11:54.908Z,43.45
2022-11-30T21:14:24.048Z,28.15
2022-11-30T21:16:53.034Z,39.15
2022-11-30T21:19:22.215Z,38.67
2022-11-30T21:21:51.207Z,31.67
2022-11-30T21:24:21.281Z,37.28
2022-11-30T21:26:50.355Z,32.72
2022-11-30T21:29:20.790Z,36.78
2022-11-30T21:31:49.812Z,34.92
2022-11-30T21:34:18.972Z,37.13
2022-11-30T21:36:48.987Z,32.72
2022-11-30T21:39:17.957Z,33.38
2022-11-30T21:41:47.004Z,36.40
2022-11-30T21:44:17.170Z,27.23
2022-11-30T21:46:48.514Z,30.13
2022-11-30T21:49:17.882Z,29.85
2022-11-30T21:51:47.132Z,33.50
2022-11-30T21:54:16.099Z,31.13
2022-11-30T21:56:46.084Z,29.00
2022-11-30T21:59:16.034Z,31.42
2022-11-30T22:01:47.660Z,34.58
2022-11-30T22:04:17.056Z,42.92
2022-11-30T22:06:46.106Z,31.20
2022-11-30T22:09:16.666Z,37.97
2022-11-30T22:11:46.696Z,36.47
2022-11-30T22:14:17.914Z,42.08
2022-11-30T22:16:48.426Z,42.05
2022-11-30T22:19:18.333Z,40.45
2022-11-30T22:21:50.248Z,41.78
2022-11-30T22:24:19.909Z,58.03
2022-11-30T22:26:50.123Z,42.10
2022-11-30T22:29:22.331Z,45.08
2022-11-30T22:31:55.884Z,46.08
2022-11-30T22:34:24.855Z,48.53
2022-11-30T22:36:53.958Z,49.95
2022-11-30T22:39:23.231Z,45.25
2022-11-30T22:41:55.585Z,38.45
2022-11-30T22:44:25.758Z,40.20
2022-11-30T22:46:56.406Z,46.00
2022-11-30T22:49:25.820Z,40.35
2022-11-30T22:51:54.905Z,37.22
2022-11-30T22:54:23.794Z,40.35
2022-11-30T22:56:52.790Z,37.10
2022-11-30T22:59:21.659Z,33.22
2022-11-30T23:01:51.625Z,44.97
2022-11-30T23:04:23.797Z,47.10
2022-11-30T23:06:53.187Z,47.10
2022-11-30T23:09:24.025Z,40.42
2022-11-30T23:11:52.995Z,36.88
2022-11-30T23:14:21.993Z,38.47
2022-11-30T23:16:50.945Z,39.83
2022-11-30T23:19:21.316Z,48.95
2022-11-30T23:21:50.685Z,32.13
2022-11-30T23:24:21.524Z,44.20
2022-11-30T23:26:51.011Z,31.50
2022-11-30T23:29:20.059Z,42.22
2022-11-30T23:31:49.550Z,47.40
2022-11-30T23:34:21.244Z,42.22
2022-11-30T23:36:51.921Z,44.03
2022-11-30T23:39:21.393Z,42.70
2022-11-30T23:41:50.603Z,40.33
2022-11-30T23:44:19.798Z,39.63
2022-11-30T23:46:49.741Z,38.13
2022-11-30T23:49:18.764Z,41.53
2022-11-30T23:51:47.802Z,43.75
2022-11-30T23:54:18.196Z,34.50
2022-11-30T23:56:48.680Z,46.13
2022-11-30T23:59:17.655Z,31.98
